createdAt,value
2018-11-03T00:01:34.059Z,101182.00
2018-11-03T00:04:01.617Z,101186.00
2018-11-03T00:06:29.156Z,101184.00
2018-11-03T00:08:56.675Z,101195.00
2018-11-03T00:11:24.205Z,101204.00
2018-11-03T00:13:51.728Z,101201.00
2018-11-03T00:16:19.272Z,101202.00
2018-11-03T00:18:46.788Z,101202.00
2018-11-03T00:21:14.319Z,101202.00
2018-11-03T00:23:41.857Z,101200.00
2018-11-03T00:26:09.384Z,101200.00
2018-11-03T00:28:36.908Z,101200.00
2018-11-03T00:31:04.596Z,101195.00
2018-11-03T00:33:32.108Z,101201.00
2018-11-03T00:35:59.787Z,101197.00
2018-11-03T00:38:27.316Z,101217.00
2018-11-03T00:40:54.852Z,101217.00
2018-11-03T00:43:22.460Z,101215.00
2018-11-03T00:45:49.996Z,101208.00
2018-11-03T00:48:17.536Z,101205.00
2018-11-03T00:50:45.074Z,101208.00
2018-11-03T00:53:12.643Z,101199.00
2018-11-03T00:55:40.142Z,101198.00
2018-11-03T00:58:07.648Z,101197.00
2018-11-03T01:00:35.176Z,101192.00
2018-11-03T01:03:02.687Z,101201.00
2018-11-03T01:05:30.223Z,101205.00
2018-11-03T01:07:57.744Z,101196.00
2018-11-03T01:10:25.285Z,101195.00
2018-11-03T01:12:52.807Z,101204.00
2018-11-03T01:15:20.345Z,101214.00
2018-11-03T01:17:47.850Z,101204.00
2018-11-03T01:20:16.471Z,101200.00
2018-11-03T01:22:44.132Z,101198.00
2018-11-03T01:25:11.659Z,101195.00
2018-11-03T01:27:39.256Z,101191.00
2018-11-03T01:30:11.649Z,101195.00
2018-11-03T01:32:39.263Z,101197.00
2018-11-03T01:35:07.364Z,101198.00
2018-11-03T01:37:35.174Z,101205.00
2018-11-03T01:40:02.724Z,101198.00
2018-11-03T01:42:30.256Z,101195.00
2018-11-03T01:44:57.764Z,101188.00
2018-11-03T01:47:25.311Z,101184.00
2018-11-03T01:49:52.839Z,101180.00
2018-11-03T01:52:20.388Z,101182.00
2018-11-03T01:54:47.919Z,101182.00
2018-11-03T01:57:15.444Z,101177.00
2018-11-03T01:59:43.116Z,101178.00
2018-11-03T02:02:10.681Z,101177.00
2018-11-03T02:04:38.211Z,101181.00
2018-11-03T02:07:05.779Z,101179.00
2018-11-03T02:09:33.303Z,101167.00
2018-11-03T02:12:00.830Z,101170.00
2018-11-03T02:14:28.351Z,101172.00
2018-11-03T02:16:55.920Z,101176.00
2018-11-03T02:19:26.188Z,101172.00
2018-11-03T02:21:53.712Z,101172.00
2018-11-03T02:24:21.232Z,101178.00
2018-11-03T02:26:48.759Z,101170.00
2018-11-03T02:29:16.284Z,101167.00
2018-11-03T02:31:43.824Z,101178.00
2018-11-03T02:34:11.348Z,101187.00
2018-11-03T02:36:38.888Z,101194.00
2018-11-03T02:39:07.389Z,101195.00
2018-11-03T02:41:34.921Z,101198.00
2018-11-03T02:44:02.455Z,101205.00
2018-11-03T02:46:29.983Z,101201.00
2018-11-03T02:48:57.520Z,101202.00
2018-11-03T02:51:25.057Z,101204.00
2018-11-03T02:53:52.588Z,101205.00
2018-11-03T02:56:20.109Z,101199.00
2018-11-03T02:58:47.628Z,101210.00
2018-11-03T03:01:15.172Z,101207.00
2018-11-03T03:03:42.713Z,101207.00
2018-11-03T03:06:10.248Z,101219.00
2018-11-03T03:08:37.775Z,101206.00
2018-11-03T03:11:05.379Z,101208.00
2018-11-03T03:13:32.909Z,101216.00
2018-11-03T03:16:00.453Z,101213.00
2018-11-03T03:18:27.988Z,101218.00
2018-11-03T03:20:55.532Z,101225.00
2018-11-03T03:23:23.077Z,101225.00
2018-11-03T03:25:50.636Z,101232.00
2018-11-03T03:28:18.181Z,101241.00
2018-11-03T03:30:45.712Z,101258.00
2018-11-03T03:33:13.257Z,101258.00
2018-11-03T03:35:40.786Z,101261.00
2018-11-03T03:38:08.319Z,101261.00
2018-11-03T03:40:35.843Z,101269.00
2018-11-03T03:43:03.726Z,101268.00
2018-11-03T03:45:31.272Z,101266.00
2018-11-03T03:47:58.817Z,101267.00
2018-11-03T03:50:26.335Z,101274.00
2018-11-03T03:52:53.901Z,101282.00
2018-11-03T03:55:21.491Z,101273.00
2018-11-03T03:57:49.033Z,101262.00
2018-11-03T04:00:16.576Z,101266.00
2018-11-03T04:02:44.128Z,101263.00
2018-11-03T04:05:11.668Z,101275.00
2018-11-03T04:07:39.344Z,101266.00
2018-11-03T04:10:07.832Z,101269.00
2018-11-03T04:12:35.365Z,101262.00
2018-11-03T04:15:03.111Z,101269.00
2018-11-03T04:17:30.648Z,101276.00
2018-11-03T04:19:58.176Z,101266.00
2018-11-03T04:22:25.716Z,101275.00
2018-11-03T04:24:53.268Z,101284.00
2018-11-03T04:27:20.813Z,101283.00
2018-11-03T04:29:48.331Z,101290.00
2018-11-03T04:32:15.882Z,101283.00
2018-11-03T04:34:43.453Z,101276.00
2018-11-03T04:37:10.994Z,101272.00
2018-11-03T04:39:38.569Z,101283.00
2018-11-03T04:42:06.125Z,101268.00
2018-11-03T04:44:33.785Z,101278.00
2018-11-03T04:47:01.346Z,101289.00
2018-11-03T04:49:28.900Z,101297.00
2018-11-03T04:51:56.455Z,101297.00
2018-11-03T04:54:24.011Z,101304.00
2018-11-03T04:56:51.556Z,101308.00
2018-11-03T04:59:19.081Z,101301.00
2018-11-03T05:01:46.628Z,101309.00
2018-11-03T05:04:14.276Z,101314.00
2018-11-03T05:06:41.785Z,101316.00
2018-11-03T05:09:10.188Z,101312.00
2018-11-03T05:11:37.974Z,101319.00
2018-11-03T05:14:06.224Z,101327.00
2018-11-03T05:16:33.759Z,101317.00
2018-11-03T05:19:01.324Z,101325.00
2018-11-03T05:21:28.941Z,101322.00
2018-11-03T05:23:56.456Z,101332.00
2018-11-03T05:26:23.992Z,101332.00
2018-11-03T05:28:51.537Z,101329.00
2018-11-03T05:31:19.148Z,101341.00
2018-11-03T05:33:46.619Z,101330.00
2018-11-03T05:36:14.162Z,101334.00
2018-11-03T05:38:41.697Z,101324.00
2018-11-03T05:41:09.255Z,101325.00
2018-11-03T05:43:36.793Z,101323.00
2018-11-03T05:46:04.316Z,101317.00
2018-11-03T05:48:31.872Z,101317.00
2018-11-03T05:50:59.437Z,101333.00
2018-11-03T05:53:27.008Z,101323.00
2018-11-03T05:55:54.582Z,101318.00
2018-11-03T05:58:22.127Z,101316.00
2018-11-03T06:00:49.668Z,101313.00
2018-11-03T06:03:17.190Z,101320.00
2018-11-03T06:05:44.708Z,101314.00
2018-11-03T06:08:12.240Z,101319.00
2018-11-03T06:10:39.779Z,101319.00
2018-11-03T06:13:07.326Z,101308.00
2018-11-03T06:15:34.911Z,101310.00
2018-11-03T06:18:02.383Z,101322.00
2018-11-03T06:20:29.894Z,101317.00
2018-11-03T06:22:57.476Z,101312.00
2018-11-03T06:25:25.152Z,101320.00
2018-11-03T06:27:52.696Z,101321.00
2018-11-03T06:30:20.217Z,101329.00
2018-11-03T06:32:47.749Z,101333.00
2018-11-03T06:35:15.288Z,101340.00
2018-11-03T06:37:42.808Z,101349.00
2018-11-03T06:40:10.424Z,101343.00
2018-11-03T06:42:38.284Z,101352.00
2018-11-03T06:45:07.106Z,101351.00
2018-11-03T06:47:34.657Z,101362.00
2018-11-03T06:50:02.397Z,101351.00
2018-11-03T06:52:29.921Z,101345.00
2018-11-03T06:54:57.445Z,101344.00
2018-11-03T06:57:24.976Z,101348.00
2018-11-03T06:59:52.564Z,101340.00
2018-11-03T07:02:20.078Z,101349.00
2018-11-03T07:04:47.596Z,101351.00
2018-11-03T07:07:15.110Z,101350.00
2018-11-03T07:09:42.635Z,101359.00
2018-11-03T07:12:10.274Z,101360.00
2018-11-03T07:14:37.692Z,101363.00
2018-11-03T07:17:05.408Z,101366.00
2018-11-03T07:19:32.954Z,101376.00
2018-11-03T07:22:00.476Z,101379.00
2018-11-03T07:24:28.029Z,101377.00
2018-11-03T07:26:55.548Z,101371.00
2018-11-03T07:29:23.107Z,101372.00
2018-11-03T07:31:50.623Z,101368.00
2018-11-03T07:34:18.117Z,101366.00
2018-11-03T07:36:45.649Z,101363.00
2018-11-03T07:39:13.469Z,101366.00
2018-11-03T07:41:41.022Z,101368.00
2018-11-03T07:44:08.722Z,101373.00
2018-11-03T07:46:36.240Z,101369.00
2018-11-03T07:49:04.041Z,101367.00
2018-11-03T07:51:31.400Z,101376.00
2018-11-03T07:53:58.944Z,101376.00
2018-11-03T07:56:26.528Z,101369.00
2018-11-03T07:58:54.062Z,101381.00
2018-11-03T08:01:21.607Z,101376.00
2018-11-03T08:03:49.148Z,101380.00
2018-11-03T08:06:16.671Z,101386.00
2018-11-03T08:08:44.219Z,101383.00
2018-11-03T08:11:11.740Z,101388.00
2018-11-03T08:13:39.272Z,101383.00
2018-11-03T08:16:06.792Z,101385.00
2018-11-03T08:18:34.315Z,101380.00
2018-11-03T08:21:01.832Z,101389.00
2018-11-03T08:23:29.344Z,101382.00
2018-11-03T08:25:56.856Z,101393.00
2018-11-03T08:28:24.460Z,101392.00
2018-11-03T08:30:51.996Z,101389.00
2018-11-03T08:33:19.510Z,101385.00
2018-11-03T08:35:47.028Z,101397.00
2018-11-03T08:38:14.581Z,101398.00
2018-11-03T08:40:42.100Z,101397.00
2018-11-03T08:43:09.651Z,101395.00
2018-11-03T08:45:37.145Z,101392.00
2018-11-03T08:48:05.424Z,101393.00
2018-11-03T08:50:32.912Z,101398.00
2018-11-03T08:53:00.432Z,101401.00
2018-11-03T08:55:27.955Z,101400.00
2018-11-03T08:57:55.460Z,101397.00
2018-11-03T09:00:23.086Z,101391.00
2018-11-03T09:02:50.511Z,101386.00
2018-11-03T09:05:18.012Z,101394.00
2018-11-03T09:07:45.527Z,101399.00
2018-11-03T09:10:14.028Z,101394.00
2018-11-03T09:12:41.779Z,101391.00
2018-11-03T09:15:10.991Z,101380.00
2018-11-03T09:17:39.368Z,101386.00
2018-11-03T09:20:08.158Z,101400.00
2018-11-03T09:22:36.547Z,101394.00
2018-11-03T09:25:05.888Z,101390.00
2018-11-03T09:27:33.406Z,101395.00
2018-11-03T09:30:00.928Z,101393.00
2018-11-03T09:32:28.451Z,101393.00
2018-11-03T09:34:55.968Z,101389.00
2018-11-03T09:37:23.484Z,101404.00
2018-11-03T09:39:50.995Z,101404.00
2018-11-03T09:42:18.511Z,101403.00
2018-11-03T09:44:46.071Z,101400.00
2018-11-03T09:47:13.551Z,101411.00
2018-11-03T09:49:41.083Z,101406.00
2018-11-03T09:52:08.619Z,101409.00
2018-11-03T09:54:36.270Z,101409.00
2018-11-03T09:57:04.019Z,101407.00
2018-11-03T09:59:31.548Z,101398.00
2018-11-03T10:01:59.061Z,101407.00
2018-11-03T10:04:26.663Z,101403.00
2018-11-03T10:06:54.163Z,101405.00
2018-11-03T10:09:21.696Z,101404.00
2018-11-03T10:11:49.222Z,101395.00
2018-11-03T10:14:16.748Z,101400.00
2018-11-03T10:16:44.281Z,101390.00
2018-11-03T10:19:11.821Z,101402.00
2018-11-03T10:21:39.344Z,101395.00
2018-11-03T10:24:06.957Z,101397.00
2018-11-03T10:26:34.476Z,101393.00
2018-11-03T10:29:02.041Z,101394.00
2018-11-03T10:31:29.524Z,101389.00
2018-11-03T10:33:57.032Z,101389.00
2018-11-03T10:36:24.566Z,101389.00
2018-11-03T10:38:52.109Z,101379.00
2018-11-03T10:41:19.628Z,101383.00
2018-11-03T10:43:47.167Z,101382.00
2018-11-03T10:46:14.762Z,101380.00
2018-11-03T10:48:42.235Z,101374.00
2018-11-03T10:51:10.019Z,101374.00
2018-11-03T10:53:37.605Z,101362.00
2018-11-03T10:56:05.092Z,101364.00
2018-11-03T10:58:32.616Z,101373.00
2018-11-03T11:01:05.865Z,101372.00
2018-11-03T11:03:39.280Z,101375.00
2018-11-03T11:06:12.526Z,101379.00
2018-11-03T11:08:45.796Z,101380.00
2018-11-03T11:11:19.148Z,101376.00
2018-11-03T11:13:46.929Z,101374.00
2018-11-03T11:16:14.482Z,101367.00
2018-11-03T11:18:41.988Z,101366.00
2018-11-03T11:21:09.529Z,101365.00
2018-11-03T11:23:37.151Z,101374.00
2018-11-03T11:26:04.677Z,101371.00
2018-11-03T11:28:32.257Z,101364.00
2018-11-03T11:30:59.776Z,101368.00
2018-11-03T11:33:27.296Z,101364.00
2018-11-03T11:35:54.836Z,101359.00
2018-11-03T11:38:22.366Z,101359.00
2018-11-03T11:40:49.888Z,101356.00
2018-11-03T11:43:17.511Z,101361.00
2018-11-03T11:45:44.942Z,101357.00
2018-11-03T11:48:12.451Z,101352.00
2018-11-03T11:50:39.985Z,101351.00
2018-11-03T11:53:07.523Z,101355.00
2018-11-03T11:55:35.055Z,101345.00
2018-11-03T11:58:02.565Z,101347.00
2018-11-03T12:00:30.116Z,101342.00
2018-11-03T12:02:57.719Z,101340.00
2018-11-03T12:05:25.275Z,101346.00
2018-11-03T12:07:52.774Z,101337.00
2018-11-03T12:10:20.315Z,101336.00
2018-11-03T12:12:47.827Z,101338.00
2018-11-03T12:15:15.355Z,101332.00
2018-11-03T12:17:42.893Z,101331.00
2018-11-03T12:20:10.427Z,101329.00
2018-11-03T12:22:38.712Z,101325.00
2018-11-03T12:25:08.541Z,101329.00
2018-11-03T12:27:36.392Z,101318.00
2018-11-03T12:30:06.404Z,101316.00
2018-11-03T12:32:34.144Z,101314.00
2018-11-03T12:35:01.986Z,101315.00
2018-11-03T12:37:29.734Z,101315.00
2018-11-03T12:39:57.505Z,101307.00
2018-11-03T12:42:25.493Z,101303.00
2018-11-03T12:44:53.258Z,101303.00
2018-11-03T12:47:21.072Z,101306.00
2018-11-03T12:49:51.637Z,101298.00
2018-11-03T12:52:19.400Z,101293.00
2018-11-03T12:54:47.133Z,101299.00
2018-11-03T12:57:14.949Z,101303.00
2018-11-03T12:59:42.782Z,101299.00
2018-11-03T13:02:10.548Z,101295.00
2018-11-03T13:04:38.326Z,101299.00
2018-11-03T13:07:06.120Z,101301.00
2018-11-03T13:09:34.054Z,101298.00
2018-11-03T13:12:01.790Z,101296.00
2018-11-03T13:14:29.478Z,101293.00
2018-11-03T13:16:57.302Z,101291.00
2018-11-03T13:19:25.122Z,101301.00
2018-11-03T13:21:52.934Z,101289.00
2018-11-03T13:24:20.786Z,101297.00
2018-11-03T13:26:48.569Z,101295.00
2018-11-03T13:29:16.348Z,101302.00
2018-11-03T13:31:44.133Z,101294.00
2018-11-03T13:34:11.974Z,101299.00
2018-11-03T13:36:39.722Z,101305.00
2018-11-03T13:39:08.600Z,101296.00
2018-11-03T13:41:36.462Z,101301.00
2018-11-03T13:44:04.483Z,101295.00
2018-11-03T13:46:32.313Z,101295.00
2018-11-03T13:49:00.476Z,101295.00
2018-11-03T13:51:28.414Z,101296.00
2018-11-03T13:53:56.447Z,101296.00
2018-11-03T13:56:24.265Z,101287.00
2018-11-03T13:58:52.744Z,101293.00
2018-11-03T14:01:20.485Z,101293.00
2018-11-03T14:03:48.245Z,101298.00
2018-11-03T14:06:16.186Z,101300.00
2018-11-03T14:08:44.026Z,101296.00
2018-11-03T14:11:11.908Z,101289.00
2018-11-03T14:13:39.685Z,101296.00
2018-11-03T14:16:07.495Z,101286.00
2018-11-03T14:18:35.248Z,101276.00
2018-11-03T14:21:03.025Z,101280.00
2018-11-03T14:23:30.869Z,101286.00
2018-11-03T14:25:58.616Z,101284.00
2018-11-03T14:28:26.390Z,101281.00
2018-11-03T14:30:54.185Z,101278.00
2018-11-03T14:33:21.976Z,101271.00
2018-11-03T14:35:49.691Z,101267.00
2018-11-03T14:38:17.481Z,101265.00
2018-11-03T14:40:45.281Z,101269.00
2018-11-03T14:43:13.135Z,101263.00
2018-11-03T14:45:40.954Z,101275.00
2018-11-03T14:48:08.789Z,101268.00
2018-11-03T14:50:36.603Z,101266.00
2018-11-03T14:53:04.446Z,101266.00
2018-11-03T14:55:32.246Z,101258.00
2018-11-03T14:57:59.992Z,101260.00
2018-11-03T15:00:27.808Z,101266.00
2018-11-03T15:02:55.624Z,101267.00
2018-11-03T15:05:23.426Z,101269.00
2018-11-03T15:07:51.177Z,101264.00
2018-11-03T15:10:18.974Z,101263.00
2018-11-03T15:12:46.809Z,101256.00
2018-11-03T15:15:15.432Z,101263.00
2018-11-03T15:17:43.594Z,101261.00
2018-11-03T15:20:11.869Z,101270.00
2018-11-03T15:22:40.249Z,101269.00
2018-11-03T15:25:08.513Z,101259.00
2018-11-03T15:27:36.297Z,101262.00
2018-11-03T15:30:04.723Z,101257.00
2018-11-03T15:32:32.546Z,101268.00
2018-11-03T15:35:00.629Z,101257.00
2018-11-03T15:37:28.416Z,101260.00
2018-11-03T15:39:56.150Z,101269.00
2018-11-03T15:42:23.945Z,101264.00
2018-11-03T15:44:51.737Z,101267.00
2018-11-03T15:47:19.604Z,101262.00
2018-11-03T15:49:47.444Z,101264.00
2018-11-03T15:52:15.253Z,101264.00
2018-11-03T15:54:42.996Z,101259.00
2018-11-03T15:57:10.788Z,101260.00
2018-11-03T15:59:38.577Z,101257.00
2018-11-03T16:02:06.300Z,101262.00
2018-11-03T16:04:34.125Z,101257.00
2018-11-03T16:07:01.957Z,101264.00
2018-11-03T16:09:29.751Z,101267.00
2018-11-03T16:11:57.651Z,101264.00
2018-11-03T16:14:25.349Z,101259.00
2018-11-03T16:16:53.148Z,101263.00
2018-11-03T16:19:20.901Z,101267.00
2018-11-03T16:21:48.665Z,101267.00
2018-11-03T16:24:16.401Z,101263.00
2018-11-03T16:26:44.199Z,101258.00
2018-11-03T16:29:11.982Z,101272.00
2018-11-03T16:31:39.745Z,101260.00
2018-11-03T16:34:07.569Z,101256.00
2018-11-03T16:36:35.392Z,101256.00
2018-11-03T16:39:04.430Z,101260.00
2018-11-03T16:41:32.200Z,101258.00
2018-11-03T16:43:59.972Z,101257.00
2018-11-03T16:46:27.757Z,101256.00
2018-11-03T16:48:55.545Z,101256.00
2018-11-03T16:51:23.345Z,101243.00
2018-11-03T16:53:51.112Z,101243.00
2018-11-03T16:56:18.917Z,101238.00
2018-11-03T16:58:46.791Z,101240.00
2018-11-03T17:01:14.549Z,101232.00
2018-11-03T17:03:42.340Z,101236.00
2018-11-03T17:06:10.179Z,101238.00
2018-11-03T17:08:37.913Z,101244.00
2018-11-03T17:11:05.729Z,101241.00
2018-11-03T17:13:33.510Z,101237.00
2018-11-03T17:16:01.313Z,101241.00
2018-11-03T17:18:29.166Z,101237.00
2018-11-03T17:20:56.944Z,101236.00
2018-11-03T17:23:24.856Z,101223.00
2018-11-03T17:25:52.650Z,101225.00
2018-11-03T17:28:20.495Z,101224.00
2018-11-03T17:30:48.310Z,101228.00
2018-11-03T17:33:16.129Z,101220.00
2018-11-03T17:35:43.905Z,101223.00
2018-11-03T17:38:11.708Z,101226.00
2018-11-03T17:40:39.467Z,101222.00
2018-11-03T17:43:07.306Z,101213.00
2018-11-03T17:45:35.153Z,101211.00
2018-11-03T17:48:02.909Z,101219.00
2018-11-03T17:50:30.661Z,101214.00
2018-11-03T17:52:58.533Z,101211.00
2018-11-03T17:55:26.366Z,101214.00
2018-11-03T17:57:54.123Z,101210.00
2018-11-03T18:00:23.889Z,101205.00
2018-11-03T18:02:51.845Z,101208.00
2018-11-03T18:05:19.709Z,101209.00
2018-11-03T18:07:47.526Z,101208.00
2018-11-03T18:10:15.275Z,101205.00
2018-11-03T18:12:43.370Z,101198.00
2018-11-03T18:15:11.220Z,101202.00
2018-11-03T18:17:39.035Z,101200.00
2018-11-03T18:20:07.444Z,101196.00
2018-11-03T18:22:34.976Z,101204.00
2018-11-03T18:25:02.753Z,101198.00
2018-11-03T18:27:30.267Z,101195.00
2018-11-03T18:29:57.836Z,101199.00
2018-11-03T18:32:25.363Z,101196.00
2018-11-03T18:34:52.909Z,101185.00
2018-11-03T18:37:20.439Z,101189.00
2018-11-03T18:39:47.957Z,101184.00
2018-11-03T18:42:15.481Z,101187.00
2018-11-03T18:44:43.025Z,101191.00
2018-11-03T18:47:10.549Z,101194.00
2018-11-03T18:49:38.088Z,101182.00
2018-11-03T18:52:05.614Z,101184.00
2018-11-03T18:54:33.172Z,101178.00
2018-11-03T18:57:00.699Z,101168.00
2018-11-03T18:59:28.228Z,101173.00
2018-11-03T19:01:56.044Z,101179.00
2018-11-03T19:04:23.590Z,101177.00
2018-11-03T19:06:51.125Z,101180.00
2018-11-03T19:09:18.750Z,101179.00
2018-11-03T19:11:46.208Z,101174.00
2018-11-03T19:14:13.748Z,101171.00
2018-11-03T19:16:41.277Z,101169.00
2018-11-03T19:19:08.813Z,101168.00
2018-11-03T19:21:36.336Z,101168.00
2018-11-03T19:24:04.165Z,101154.00
2018-11-03T19:26:31.659Z,101165.00
2018-11-03T19:28:59.209Z,101163.00
2018-11-03T19:31:26.741Z,101159.00
2018-11-03T19:33:54.269Z,101163.00
2018-11-03T19:36:21.795Z,101161.00
2018-11-03T19:38:49.327Z,101153.00
2018-11-03T19:41:16.864Z,101160.00
2018-11-03T19:43:44.408Z,101153.00
2018-11-03T19:46:11.929Z,101154.00
2018-11-03T19:48:39.464Z,101142.00
2018-11-03T19:51:06.990Z,101155.00
2018-11-03T19:53:34.533Z,101151.00
2018-11-03T19:56:02.078Z,101155.00
2018-11-03T19:58:29.605Z,101156.00
2018-11-03T20:00:57.145Z,101147.00
2018-11-03T20:03:24.744Z,101135.00
2018-11-03T20:05:52.284Z,101145.00
2018-11-03T20:08:19.821Z,101139.00
2018-11-03T20:10:47.348Z,101143.00
2018-11-03T20:13:14.890Z,101144.00
2018-11-03T20:15:42.425Z,101140.00
2018-11-03T20:18:09.952Z,101138.00
2018-11-03T20:20:37.488Z,101137.00
2018-11-03T20:23:05.023Z,101130.00
2018-11-03T20:25:32.558Z,101127.00
2018-11-03T20:28:00.090Z,101109.00
2018-11-03T20:30:27.637Z,101116.00
2018-11-03T20:32:55.163Z,101127.00
2018-11-03T20:35:22.708Z,101112.00
2018-11-03T20:37:50.245Z,101114.00
2018-11-03T20:40:17.784Z,101118.00
2018-11-03T20:42:45.315Z,101113.00
2018-11-03T20:45:12.864Z,101108.00
2018-11-03T20:47:40.405Z,101114.00
2018-11-03T20:50:10.118Z,101106.00
2018-11-03T20:52:37.652Z,101106.00
2018-11-03T20:55:06.365Z,101108.00
2018-11-03T20:57:33.882Z,101111.00
2018-11-03T21:00:01.450Z,101110.00
2018-11-03T21:02:28.980Z,101112.00
2018-11-03T21:04:56.516Z,101109.00
2018-11-03T21:07:24.047Z,101104.00
2018-11-03T21:09:51.592Z,101104.00
2018-11-03T21:12:19.116Z,101100.00
2018-11-03T21:14:46.636Z,101092.00
2018-11-03T21:17:14.164Z,101094.00
2018-11-03T21:19:41.720Z,101087.00
2018-11-03T21:22:10.697Z,101085.00
2018-11-03T21:24:38.223Z,101087.00
2018-11-03T21:27:06.776Z,101082.00
2018-11-03T21:29:34.309Z,101077.00
2018-11-03T21:32:01.894Z,101082.00
2018-11-03T21:34:29.396Z,101078.00
2018-11-03T21:36:56.907Z,101074.00
2018-11-03T21:39:24.451Z,101064.00
2018-11-03T21:41:51.975Z,101067.00
2018-11-03T21:44:19.507Z,101053.00
2018-11-03T21:46:47.119Z,101059.00
2018-11-03T21:49:14.580Z,101053.00
2018-11-03T21:51:42.119Z,101046.00
2018-11-03T21:54:09.666Z,101039.00
2018-11-03T21:56:37.213Z,101036.00
2018-11-03T21:59:05.087Z,101038.00
2018-11-03T22:01:32.652Z,101033.00
2018-11-03T22:04:00.185Z,101035.00
2018-11-03T22:06:27.785Z,101027.00
2018-11-03T22:08:55.251Z,101020.00
2018-11-03T22:11:22.765Z,101014.00
2018-11-03T22:13:50.307Z,101019.00
2018-11-03T22:16:17.838Z,101016.00
2018-11-03T22:18:45.460Z,101008.00
2018-11-03T22:21:13.031Z,101004.00
2018-11-03T22:23:40.564Z,101004.00
2018-11-03T22:26:08.092Z,100996.00
2018-11-03T22:28:35.591Z,100998.00
2018-11-03T22:31:03.145Z,100997.00
2018-11-03T22:33:30.673Z,100998.00
2018-11-03T22:35:58.224Z,100999.00
2018-11-03T22:38:25.748Z,100996.00
2018-11-03T22:40:53.274Z,101001.00
2018-11-03T22:43:20.923Z,100990.00
2018-11-03T22:45:48.448Z,100989.00
2018-11-03T22:48:15.959Z,100979.00
2018-11-03T22:50:43.518Z,100981.00
2018-11-03T22:53:11.044Z,100976.00
2018-11-03T22:55:38.586Z,100967.00
2018-11-03T22:58:06.488Z,100978.00
2018-11-03T23:00:38.652Z,100966.00
2018-11-03T23:03:06.208Z,100962.00
2018-11-03T23:05:33.757Z,100958.00
2018-11-03T23:08:01.329Z,100950.00
2018-11-03T23:10:28.860Z,100947.00
2018-11-03T23:12:56.407Z,100943.00
2018-11-03T23:15:24.710Z,100942.00
2018-11-03T23:17:52.244Z,100943.00
2018-11-03T23:20:19.769Z,100937.00
2018-11-03T23:22:47.288Z,100932.00
2018-11-03T23:25:14.828Z,100935.00
2018-11-03T23:27:42.365Z,100922.00
2018-11-03T23:30:11.316Z,100924.00
2018-11-03T23:32:38.809Z,100917.00
2018-11-03T23:35:08.832Z,100918.00
2018-11-03T23:37:36.360Z,100928.00
2018-11-03T23:40:04.653Z,100911.00
2018-11-03T23:42:32.184Z,100922.00
2018-11-03T23:44:59.775Z,100913.00
2018-11-03T23:47:27.264Z,100922.00
2018-11-03T23:49:54.783Z,100908.00
2018-11-03T23:52:28.020Z,100906.00
2018-11-03T23:54:55.550Z,100904.00
2018-11-03T23:57:23.085Z,100894.00
2018-11-03T23:59:50.637Z,100892.00
